WAT89 ENTC-ENSR

Flight info

Callsign WAT89
Flight time 0h 20m
Altitude 11000
Route INLAM
Aircraft B60T/L-SDFGRY/C

Departure

Time 2026-04-25 15:19
Airport Tromsø Airport (ENTC)

Arrival

Time 2026-04-25 15:39
Airport Sørkjosen Airport (ENSR)
Time Latitude Longitude Altitude Speed Heading
2026-04-25 15:03 69.68495 18.91358 21 ft 0 kts 185°
2026-04-25 15:16 69.68469 18.91452 20 ft 13 kts 135°
2026-04-25 15:17 69.68302 18.91488 22 ft 9 kts 193°
2026-04-25 15:17 69.68227 18.91431 24 ft 15 kts 195°
2026-04-25 15:17 69.68115 18.91352 29 ft 16 kts 189°
2026-04-25 15:18 69.68066 18.91574 28 ft 21 kts 103°
2026-04-25 15:18 69.68086 18.91723 29 ft 0 kts 12°
2026-04-25 15:18 69.68177 18.91786 25 ft 50 kts 13°
2026-04-25 15:19 69.68814 18.92221 125 ft 122 kts 13°
2026-04-25 15:19 69.69374 18.92643 580 ft 128 kts 14°
2026-04-25 15:19 69.70552 18.93737 1544 ft 139 kts 18°
2026-04-25 15:19 69.71474 18.94695 2309 ft 144 kts 30°
2026-04-25 15:20 69.71942 18.97238 2998 ft 153 kts 90°
2026-04-25 15:20 69.72053 19.00228 3718 ft 150 kts 66°
2026-04-25 15:20 69.72463 19.02983 4341 ft 157 kts 64°
2026-04-25 15:20 69.72894 19.05992 4875 ft 165 kts 65°
2026-04-25 15:21 69.73331 19.09109 5359 ft 172 kts 65°
2026-04-25 15:21 69.73796 19.12461 5578 ft 188 kts 65°
2026-04-25 15:21 69.74299 19.16094 5571 ft 198 kts 65°
2026-04-25 15:21 69.74791 19.19655 5457 ft 186 kts 65°
2026-04-25 15:22 69.75274 19.23147 5220 ft 189 kts 65°
2026-04-25 15:22 69.75769 19.26692 4998 ft 190 kts 65°
2026-04-25 15:22 69.76255 19.30156 4995 ft 183 kts 65°
2026-04-25 15:22 69.76734 19.33580 4990 ft 184 kts 65°
2026-04-25 15:23 69.77215 19.37020 4987 ft 185 kts 65°
2026-04-25 15:23 69.77696 19.40463 4985 ft 185 kts 65°
2026-04-25 15:23 69.78178 19.43906 4982 ft 185 kts 65°
2026-04-25 15:23 69.78659 19.47345 4971 ft 184 kts 65°
2026-04-25 15:24 69.79139 19.50782 4972 ft 184 kts 65°
2026-04-25 15:24 69.79613 19.54179 4967 ft 184 kts 65°
2026-04-25 15:24 69.80039 19.57241 4974 ft 183 kts 65°
2026-04-25 15:24 69.80364 19.59565 4973 ft 185 kts 66°
2026-04-25 15:25 69.81024 19.64150 4972 ft 187 kts 64°
2026-04-25 15:25 69.81599 19.67534 4971 ft 188 kts 60°
2026-04-25 15:25 69.82188 19.70900 4955 ft 186 kts 60°
2026-04-25 15:25 69.82773 19.74228 4953 ft 185 kts 60°
2026-04-25 15:26 69.83355 19.77539 4951 ft 184 kts 60°
2026-04-25 15:26 69.83934 19.80843 4947 ft 183 kts 60°
2026-04-25 15:26 69.84509 19.84139 4944 ft 183 kts 61°
2026-04-25 15:26 69.85082 19.87422 4942 ft 182 kts 61°
2026-04-25 15:27 69.85658 19.90698 4942 ft 182 kts 60°
2026-04-25 15:27 69.86229 19.93965 4943 ft 181 kts 60°
2026-04-25 15:27 69.87370 20.00498 4939 ft 181 kts 60°
2026-04-25 15:28 69.87936 20.03728 4939 ft 181 kts 60°
2026-04-25 15:28 69.88506 20.06999 4940 ft 182 kts 61°
2026-04-25 15:28 69.89079 20.10290 4932 ft 183 kts 60°
2026-04-25 15:28 69.89646 20.13557 4956 ft 177 kts 60°
2026-04-25 15:29 69.90175 20.16604 4804 ft 164 kts 61°
2026-04-25 15:29 69.90685 20.19541 4654 ft 161 kts 61°
2026-04-25 15:29 69.91186 20.22432 4538 ft 160 kts 63°
2026-04-25 15:29 69.91549 20.25494 4387 ft 160 kts 72°
2026-04-25 15:30 69.91864 20.28594 4250 ft 160 kts 72°
2026-04-25 15:30 69.92176 20.31676 4081 ft 158 kts 72°
2026-04-25 15:30 69.92492 20.34750 3948 ft 159 kts 71°
2026-04-25 15:30 69.92803 20.37839 3782 ft 159 kts 72°
2026-04-25 15:31 69.93001 20.41008 3624 ft 162 kts 84°
2026-04-25 15:31 69.93100 20.44469 3469 ft 178 kts 85°
2026-04-25 15:31 69.93201 20.48132 3329 ft 184 kts 86°
2026-04-25 15:31 69.93198 20.51888 3193 ft 186 kts 92°
2026-04-25 15:32 69.93158 20.55670 3055 ft 187 kts 92°
2026-04-25 15:32 69.93118 20.59457 2912 ft 187 kts 92°
2026-04-25 15:32 69.93077 20.63228 2781 ft 186 kts 92°
2026-04-25 15:33 69.93000 20.70691 2476 ft 185 kts 92°
2026-04-25 15:33 69.92964 20.74448 2311 ft 185 kts 92°
2026-04-25 15:33 69.92933 20.78180 2157 ft 184 kts 92°
2026-04-25 15:33 69.92898 20.81884 2034 ft 183 kts 92°
2026-04-25 15:34 69.92866 20.85526 2021 ft 177 kts 92°
2026-04-25 15:34 69.92838 20.89104 2023 ft 177 kts 92°
2026-04-25 15:34 69.92791 20.92702 2016 ft 178 kts 97°
2026-04-25 15:34 69.92576 20.94981 2028 ft 175 kts 118°
2026-04-25 15:35 69.90276 20.98092 2120 ft 166 kts 186°
2026-04-25 15:35 69.89120 20.97812 2094 ft 167 kts 187°
2026-04-25 15:35 69.87950 20.97778 2021 ft 169 kts 181°
2026-04-25 15:36 69.85610 20.97596 1941 ft 166 kts 188°
2026-04-25 15:36 69.84457 20.97329 1886 ft 167 kts 184°
2026-04-25 15:36 69.83371 20.97462 1692 ft 147 kts 177°
2026-04-25 15:37 69.82406 20.98057 1536 ft 137 kts 164°
2026-04-25 15:37 69.81593 20.99059 1436 ft 118 kts 159°
2026-04-25 15:37 69.80908 21.00241 1375 ft 114 kts 155°
2026-04-25 15:37 69.80208 21.01307 1274 ft 115 kts 159°
2026-04-25 15:38 69.79471 21.02193 1193 ft 114 kts 164°
2026-04-25 15:38 69.78710 21.02846 1002 ft 112 kts 181°
2026-04-25 15:38 69.77983 21.02420 821 ft 106 kts 215°
2026-04-25 15:38 69.77504 21.00878 632 ft 103 kts 248°
2026-04-25 15:39 69.77449 20.98860 455 ft 101 kts 281°
2026-04-25 15:39 69.77843 20.97192 240 ft 107 kts 323°
2026-04-25 15:39 69.78493 20.96211 38 ft 102 kts 330°
2026-04-25 15:39 69.78999 20.95496 15 ft 40 kts 330°
2026-04-25 15:40 69.79071 20.95427 15 ft 9 kts
2026-04-25 15:40 69.79086 20.95391 15 ft 7 kts 259°
2026-04-25 15:40 69.78917 20.95612 15 ft 26 kts 154°
2026-04-25 15:40 69.78714 20.95903 15 ft 38 kts 156°
2026-04-25 15:41 69.78561 20.96112 16 ft 14 kts 161°
2026-04-25 15:41 69.78536 20.96037 15 ft 7 kts 252°
2026-04-25 15:41 69.78525 20.95943 15 ft 2 kts 264°
2026-04-25 15:41 69.78529 20.95915 15 ft 3 kts 315°
2026-04-25 15:42 69.78540 20.95901 15 ft 0 kts 334°